Time;durP1;ratioP1;P1;durP2;ratioP2;P2;SDS_P1;SDS_P2;PMS_P1;PMS_P2;Temp;Humidity;BMP_temperature;BMP_pressure;BME280_temperature;BME280_humidity;BME280_pressure;Samples;Min_cycle;Max_cycle;Signal;HPM_P1;HPM_P2
2023/01/12 00:01:38;;;;;;;10.20;1.45;;;3.60;99.90;;;;;;5050427;28;19930;-52
2023/01/12 00:04:06;;;;;;;8.65;1.55;;;3.50;99.90;;;;;;5035381;28;20048;-56
2023/01/12 00:06:33;;;;;;;2.38;0.63;;;3.60;99.90;;;;;;5050503;28;20048;-49
2023/01/12 00:09:02;;;;;;;1.27;0.90;;;3.50;99.90;;;;;;5049507;28;20050;-52
2023/01/12 00:11:29;;;;;;;5.70;2.22;;;3.50;99.90;;;;;;5047823;28;20036;-50
2023/01/12 00:13:57;;;;;;;5.05;1.98;;;3.50;99.90;;;;;;5047721;28;20052;-50
2023/01/12 00:16:33;;;;;;;8.43;1.48;;;3.50;99.90;;;;;;5051504;28;20047;-53
2023/01/12 00:19:14;;;;;;;7.18;1.13;;;3.50;99.90;;;;;;5050687;28;20230;-53
2023/01/12 00:21:57;;;;;;;4.32;1.40;;;3.50;99.90;;;;;;5049724;28;20047;-53
2023/01/12 00:24:28;;;;;;;8.45;1.67;;;3.50;99.90;;;;;;5048845;28;20726;-51
2023/01/12 00:26:56;;;;;;;15.23;1.80;;;3.50;99.90;;;;;;5052425;28;20109;-53
2023/01/12 00:29:24;;;;;;;13.10;1.75;;;3.40;99.90;;;;;;5052841;28;20597;-51
2023/01/12 00:31:55;;;;;;;8.20;1.42;;;3.40;99.90;;;;;;5019147;28;20060;-51
2023/01/12 00:34:23;;;;;;;11.63;2.05;;;3.40;99.90;;;;;;5049963;28;20127;-54
2023/01/12 00:36:50;;;;;;;4.50;1.20;;;3.30;99.90;;;;;;5048225;28;20135;-50
2023/01/12 00:39:17;;;;;;;8.23;1.50;;;3.30;99.90;;;;;;5039268;28;20056;-54
2023/01/12 00:47:16;;;;;;;9.95;1.70;;;3.30;99.90;;;;;;5048479;28;20048;-52
2023/01/12 00:49:43;;;;;;;8.57;2.30;;;3.30;99.90;;;;;;5049090;28;20213;-52
2023/01/12 00:52:13;;;;;;;4.90;1.50;;;3.30;99.90;;;;;;5049807;28;20177;-53
2023/01/12 00:54:55;;;;;;;4.65;1.35;;;3.20;99.90;;;;;;5050485;28;20867;-53
2023/01/12 00:57:22;;;;;;;;;;;3.20;99.90;;;;;;5053199;28;20044;-53
2023/01/12 00:59:49;;;;;;;8.20;1.63;;;3.20;99.90;;;;;;5049686;28;19929;-50
2023/01/12 01:02:16;;;;;;;6.10;1.30;;;3.20;99.90;;;;;;5050026;28;20044;-53
2023/01/12 01:04:43;;;;;;;5.72;1.25;;;3.20;99.90;;;;;;5042263;28;20743;-53
2023/01/12 01:07:12;;;;;;;;;;;3.20;99.90;;;;;;5048519;28;20123;-51
2023/01/12 01:09:38;;;;;;;5.93;1.02;;;3.20;99.90;;;;;;5022702;28;20390;-54
2023/01/12 01:12:06;;;;;;;8.60;1.52;;;3.30;99.90;;;;;;5047749;28;20054;-53
2023/01/12 01:14:32;;;;;;;4.38;1.33;;;3.30;99.90;;;;;;5049095;28;20589;-53
2023/01/12 01:16:59;;;;;;;5.50;1.30;;;3.30;99.90;;;;;;5050055;28;20048;-52
2023/01/12 01:19:26;;;;;;;;;;;3.30;99.90;;;;;;5050055;28;20040;-52
2023/01/12 01:21:52;;;;;;;6.03;1.20;;;3.30;99.90;;;;;;5051222;28;19924;-55
2023/01/12 01:24:19;;;;;;;5.68;1.33;;;3.40;99.90;;;;;;5051584;28;20052;-56
2023/01/12 01:26:47;;;;;;;;;;;3.40;99.90;;;;;;5052375;28;20040;-53
2023/01/12 01:29:14;;;;;;;6.53;1.65;;;3.30;99.90;;;;;;5051698;28;19969;-53
2023/01/12 01:31:41;;;;;;;;;;;3.30;99.90;;;;;;5052347;28;20071;-53
2023/01/12 01:34:08;;;;;;;4.95;1.48;;;3.30;99.90;;;;;;5053920;28;19924;-54
2023/01/12 01:36:34;;;;;;;;;;;3.30;99.90;;;;;;5052145;28;20045;-52
2023/01/12 01:39:01;;;;;;;4.55;1.35;;;3.30;99.90;;;;;;5053352;28;19930;-54
2023/01/12 01:41:29;;;;;;;;;;;3.20;99.90;;;;;;5054808;28;20101;-53
2023/01/12 01:43:57;;;;;;;;;;;3.20;99.90;;;;;;5055266;28;19967;-52
2023/01/12 01:46:34;;;;;;;6.15;2.22;;;3.20;99.90;;;;;;5050948;28;19924;-50
2023/01/12 01:49:35;;;;;;;2.20;0.93;;;3.20;99.90;;;;;;5052208;28;20071;-55
2023/01/12 01:52:07;;;;;;;5.30;1.23;;;3.20;99.90;;;;;;5053483;28;20044;-53
2023/01/12 01:54:42;;;;;;;8.48;1.85;;;3.20;99.90;;;;;;5016062;28;20149;-55
2023/01/12 01:57:11;;;;;;;6.22;1.63;;;3.20;99.90;;;;;;5051216;28;20048;-54
2023/01/12 01:59:43;;;;;;;3.58;1.40;;;3.10;99.90;;;;;;5051623;28;20713;-53
2023/01/12 02:02:10;;;;;;;6.20;1.50;;;3.00;99.90;;;;;;5035954;28;20044;-52
2023/01/12 02:04:37;;;;;;;12.55;1.75;;;3.00;99.90;;;;;;5053447;28;20040;-54
2023/01/12 02:07:05;;;;;;;5.43;1.58;;;3.00;99.90;;;;;;5052375;28;20123;-52
2023/01/12 02:09:32;;;;;;;7.40;2.47;;;3.00;99.90;;;;;;5047898;28;20095;-53
2023/01/12 02:17:52;;;;;;;8.00;1.50;;;2.90;99.90;;;;;;5051517;28;20075;-54
2023/01/12 02:20:39;;;;;;;6.95;2.67;;;2.90;99.90;;;;;;5051429;28;20067;-54
2023/01/12 02:23:21;;;;;;;5.45;1.30;;;2.90;99.90;;;;;;5050166;28;20570;-54
2023/01/12 02:26:08;;;;;;;8.25;1.50;;;2.80;99.90;;;;;;5051041;28;20048;-51
2023/01/12 02:28:56;;;;;;;8.40;1.70;;;2.80;99.90;;;;;;5048945;28;20044;-50
2023/01/12 02:31:41;;;;;;;8.93;1.35;;;2.90;99.90;;;;;;5050934;28;20071;-51
2023/01/12 02:34:17;;;;;;;10.23;1.73;;;2.90;99.90;;;;;;5050263;28;20557;-49
2023/01/12 02:36:50;;;;;;;10.63;1.90;;;2.90;99.90;;;;;;5051294;28;20080;-51
2023/01/12 02:39:34;;;;;;;9.88;1.20;;;2.90;99.90;;;;;;5050021;28;20060;-52
2023/01/12 02:42:48;;;;;;;8.82;2.35;;;2.90;99.90;;;;;;5033979;28;20044;-51
2023/01/12 02:45:41;;;;;;;3.97;1.13;;;2.90;99.90;;;;;;5015196;28;20087;-53
2023/01/12 02:48:24;;;;;;;1.90;1.00;;;2.80;99.90;;;;;;5052957;28;20121;-50
2023/01/12 02:51:12;;;;;;;10.73;1.98;;;2.70;99.90;;;;;;5049089;28;20045;-50
2023/01/12 02:53:51;;;;;;;10.48;1.60;;;2.70;99.90;;;;;;5051315;28;20502;-52
2023/01/12 02:56:28;;;;;;;7.30;1.23;;;2.70;99.90;;;;;;5052379;28;20051;-51
2023/01/12 02:58:57;;;;;;;;;;;2.70;99.90;;;;;;5051752;28;20052;-51
2023/01/12 03:01:26;;;;;;;12.10;1.55;;;2.70;99.90;;;;;;5048718;28;19928;-51
2023/01/12 03:03:58;;;;;;;9.18;1.48;;;2.60;99.90;;;;;;5046486;28;20307;-54
2023/01/12 03:06:41;;;;;;;9.93;2.00;;;2.60;99.90;;;;;;5048695;28;20052;-51
2023/01/12 03:09:09;;;;;;;3.05;1.02;;;2.60;99.90;;;;;;5049793;28;20064;-51
2023/01/12 03:11:39;;;;;;;5.53;1.30;;;2.60;99.90;;;;;;5049198;28;20045;-52
2023/01/12 03:14:07;;;;;;;12.05;1.77;;;2.60;99.90;;;;;;5032970;28;20698;-53
2023/01/12 03:16:37;;;;;;;12.93;2.60;;;2.60;99.90;;;;;;5034643;28;20044;-53
2023/01/12 03:19:08;;;;;;;6.95;1.73;;;2.60;99.90;;;;;;5048621;28;20056;-53
2023/01/12 03:21:37;;;;;;;2.25;0.75;;;2.60;99.90;;;;;;5050736;28;20040;-50
2023/01/12 03:24:13;;;;;;;11.20;1.80;;;2.60;99.90;;;;;;5049046;28;20131;-53
2023/01/12 03:26:46;;;;;;;7.32;1.90;;;2.60;99.90;;;;;;5049803;28;20064;-52
2023/01/12 03:29:30;;;;;;;10.35;1.58;;;2.60;99.90;;;;;;5051455;28;20094;-52
2023/01/12 03:31:58;;;;;;;4.85;1.20;;;2.60;99.90;;;;;;5051471;28;20078;-54
2023/01/12 03:34:26;;;;;;;6.10;1.50;;;2.60;99.90;;;;;;5049382;28;20045;-53
2023/01/12 03:36:56;;;;;;;13.50;1.80;;;2.60;99.90;;;;;;5052726;28;20130;-55
2023/01/12 03:39:55;;;;;;;10.13;2.08;;;2.60;99.90;;;;;;5049259;28;20082;-53
2023/01/12 03:42:45;;;;;;;6.93;1.42;;;2.60;99.90;;;;;;5049434;28;20289;-54
2023/01/12 03:45:46;;;;;;;7.97;1.40;;;2.60;99.90;;;;;;5051848;28;20044;-52
2023/01/12 03:48:30;;;;;;;8.15;1.30;;;2.60;99.90;;;;;;5032268;28;20040;-54
2023/01/12 03:51:02;;;;;;;10.50;2.47;;;2.60;99.90;;;;;;5050824;28;20093;-50
2023/01/12 03:53:31;;;;;;;8.95;1.90;;;2.60;99.90;;;;;;5044858;28;20068;-55
2023/01/12 03:56:02;;;;;;;5.82;2.03;;;2.50;99.90;;;;;;5046339;28;20037;-55
2023/01/12 03:58:31;;;;;;;11.32;1.30;;;2.50;99.90;;;;;;5047342;28;20113;-54
2023/01/12 04:00:58;;;;;;;11.85;1.45;;;2.50;99.90;;;;;;5048937;28;20403;-53
2023/01/12 04:03:25;;;;;;;5.13;1.20;;;2.50;99.90;;;;;;5049254;28;20067;-54
2023/01/12 04:05:52;;;;;;;10.52;1.52;;;2.50;99.90;;;;;;5051122;28;20783;-53
2023/01/12 04:08:18;;;;;;;10.52;2.03;;;2.50;99.90;;;;;;5049600;28;20035;-51
2023/01/12 04:10:45;;;;;;;9.57;1.80;;;2.50;99.90;;;;;;5035922;28;20036;-54
2023/01/12 04:13:13;;;;;;;8.70;1.38;;;2.50;99.90;;;;;;5051161;28;20055;-53
2023/01/12 04:15:42;;;;;;;9.48;1.50;;;2.50;99.90;;;;;;5049983;28;20196;-54
2023/01/12 04:18:10;;;;;;;10.13;1.60;;;2.50;99.90;;;;;;5040805;28;20675;-53
2023/01/12 04:20:37;;;;;;;7.32;1.40;;;2.50;99.90;;;;;;5050208;28;20044;-54
2023/01/12 04:23:05;;;;;;;10.57;1.27;;;2.50;99.90;;;;;;5045794;28;20115;-53
2023/01/12 04:25:33;;;;;;;11.55;2.60;;;2.50;99.90;;;;;;5049215;28;20040;-55
2023/01/12 04:28:01;;;;;;;12.00;1.77;;;2.40;99.90;;;;;;5038919;28;20809;-55
2023/01/12 04:30:30;;;;;;;4.47;1.50;;;2.40;99.90;;;;;;5050015;28;20090;-55
2023/01/12 04:32:58;;;;;;;9.02;2.03;;;2.40;99.90;;;;;;5047671;28;20045;-54
2023/01/12 04:35:26;;;;;;;7.15;1.00;;;2.40;99.90;;;;;;5047568;28;20072;-51
2023/01/12 04:37:53;;;;;;;8.43;1.35;;;2.40;99.90;;;;;;5048323;28;20040;-55
2023/01/12 04:40:20;;;;;;;6.93;1.48;;;2.40;99.90;;;;;;5049076;28;20049;-54
2023/01/12 04:43:00;;;;;;;;;;;2.40;99.90;;;;;;5048555;28;20123;-54
2023/01/12 04:45:29;;;;;;;7.57;1.38;;;2.40;99.90;;;;;;5050856;28;19920;-54
2023/01/12 04:48:03;;;;;;;12.23;2.45;;;2.40;99.90;;;;;;5045535;28;20121;-52
2023/01/12 04:50:31;;;;;;;10.55;1.52;;;2.40;99.90;;;;;;5049385;28;20049;-52
2023/01/12 04:53:01;;;;;;;7.88;1.63;;;2.40;99.90;;;;;;5049241;28;20670;-52
2023/01/12 04:55:28;;;;;;;3.00;1.50;;;2.40;99.90;;;;;;5048286;28;20410;-53
2023/01/12 04:57:56;;;;;;;7.72;1.35;;;2.40;99.90;;;;;;5049880;28;20876;-54
2023/01/12 05:00:23;;;;;;;7.60;1.45;;;2.40;99.90;;;;;;5052198;28;20115;-55
2023/01/12 05:02:56;;;;;;;3.72;1.60;;;2.50;99.90;;;;;;5050917;28;20510;-54
2023/01/12 05:05:24;;;;;;;10.70;1.25;;;2.50;99.90;;;;;;5050778;28;20419;-57
2023/01/12 05:10:36;;;;;;;7.07;1.10;;;2.50;99.90;;;;;;5054225;28;20564;-53
2023/01/12 05:13:03;;;;;;;6.05;1.33;;;2.50;99.90;;;;;;5033933;28;20073;-55
2023/01/12 05:15:30;;;;;;;3.65;1.13;;;2.50;99.90;;;;;;5041655;28;20029;-52
2023/01/12 05:17:57;;;;;;;3.85;1.63;;;2.60;99.90;;;;;;5053273;28;20750;-54
2023/01/12 05:20:23;;;;;;;;;;;2.50;99.90;;;;;;5056137;28;20047;-53
2023/01/12 05:22:51;;;;;;;2.97;1.23;;;2.60;99.90;;;;;;5050143;28;20449;-54
2023/01/12 05:25:18;;;;;;;7.65;1.42;;;2.60;99.90;;;;;;5049900;28;20052;-56
2023/01/12 05:27:44;;;;;;;;;;;2.60;99.90;;;;;;5053027;28;20049;-60
2023/01/12 05:30:11;;;;;;;5.43;1.17;;;2.70;99.90;;;;;;5053156;28;20491;-52
2023/01/12 05:32:40;;;;;;;7.90;1.50;;;2.70;99.90;;;;;;5050720;28;20044;-54
2023/01/12 05:35:08;;;;;;;7.72;1.50;;;2.70;99.90;;;;;;5050750;28;20051;-53
2023/01/12 05:37:34;;;;;;;9.43;2.15;;;2.70;99.90;;;;;;5051685;28;20093;-53
2023/01/12 05:40:01;;;;;;;;;;;2.80;99.90;;;;;;5050736;28;21091;-52
2023/01/12 05:45:13;;;;;;;9.02;1.38;;;2.90;99.90;;;;;;5052270;28;20050;-51
2023/01/12 05:47:40;;;;;;;;;;;3.00;99.90;;;;;;5053498;28;20135;-55
2023/01/12 05:50:07;;;;;;;6.32;0.90;;;3.00;99.90;;;;;;5051321;28;19924;-51
2023/01/12 05:52:34;;;;;;;6.53;1.83;;;3.10;99.90;;;;;;5034432;28;20044;-54
2023/01/12 05:55:01;;;;;;;;;;;3.10;99.90;;;;;;5049887;28;20143;-53
2023/01/12 05:57:29;;;;;;;13.60;1.50;;;3.10;99.90;;;;;;5050362;28;19931;-51
2023/01/12 05:59:56;;;;;;;2.42;0.75;;;3.20;99.90;;;;;;5041916;28;20049;-55
2023/01/12 06:02:22;;;;;;;8.18;1.42;;;3.20;99.90;;;;;;5048551;28;20505;-52
2023/01/12 06:04:49;;;;;;;3.85;1.33;;;3.30;99.90;;;;;;5050915;28;20124;-54
2023/01/12 06:07:16;;;;;;;6.55;1.50;;;3.30;99.90;;;;;;5054400;28;20513;-53
2023/01/12 06:09:43;;;;;;;;;;;3.40;99.90;;;;;;5054889;28;20071;-53
2023/01/12 06:14:56;;;;;;;7.47;1.58;;;3.50;99.90;;;;;;5050968;28;20056;-54
2023/01/12 06:17:23;;;;;;;;;;;3.50;99.90;;;;;;5034036;28;20145;-50
2023/01/12 06:19:50;;;;;;;8.90;1.05;;;3.60;99.90;;;;;;5052302;28;20013;-52
2023/01/12 06:22:18;;;;;;;;;;;3.60;99.90;;;;;;5049889;28;20083;-51
2023/01/12 06:24:47;;;;;;;7.32;1.35;;;3.60;99.90;;;;;;5052280;28;20011;-54
2023/01/12 06:27:15;;;;;;;8.88;1.70;;;3.60;99.90;;;;;;5054516;28;20534;-53
2023/01/12 06:29:42;;;;;;;4.07;1.05;;;3.60;99.90;;;;;;5052335;28;20041;-55
2023/01/12 06:32:09;;;;;;;;;;;3.60;99.90;;;;;;5052659;28;20601;-51
2023/01/12 06:34:36;;;;;;;12.20;2.15;;;3.60;99.90;;;;;;5051854;28;20020;-51
2023/01/12 06:37:03;;;;;;;5.63;1.88;;;3.60;99.90;;;;;;5052864;28;20040;-54
2023/01/12 06:39:30;;;;;;;6.05;1.38;;;3.60;99.90;;;;;;5052477;28;20107;-52
2023/01/12 06:44:42;;;;;;;3.72;1.00;;;3.70;99.90;;;;;;5051844;28;20078;-52
2023/01/12 06:47:09;;;;;;;5.78;1.23;;;3.80;99.90;;;;;;5052244;28;20049;-52
2023/01/12 06:49:36;;;;;;;9.13;1.70;;;3.80;99.90;;;;;;5032412;28;20284;-53
2023/01/12 06:52:03;;;;;;;;;;;3.90;99.90;;;;;;5050533;28;20520;-52
2023/01/12 06:54:30;;;;;;;15.32;1.80;;;3.90;99.90;;;;;;5052950;28;19924;-49
2023/01/12 06:56:57;;;;;;;10.95;1.58;;;3.90;99.90;;;;;;5051068;28;20740;-52
2023/01/12 06:59:23;;;;;;;9.15;2.05;;;3.90;99.90;;;;;;5054287;28;20643;-51
2023/01/12 07:01:50;;;;;;;;;;;4.00;99.90;;;;;;5056226;28;20498;-51
2023/01/12 07:04:17;;;;;;;9.27;1.63;;;4.00;99.90;;;;;;5049857;28;19967;-50
2023/01/12 07:06:44;;;;;;;;;;;4.00;99.90;;;;;;5050422;28;20040;-51
2023/01/12 07:09:11;;;;;;;9.32;1.52;;;4.10;99.90;;;;;;5043305;28;19928;-49
2023/01/12 07:11:38;;;;;;;4.93;1.17;;;4.20;99.90;;;;;;5051313;28;20032;-53
2023/01/12 07:14:05;;;;;;;6.30;1.70;;;4.20;99.90;;;;;;5049861;28;20036;-52
2023/01/12 07:16:34;;;;;;;6.45;1.20;;;4.30;99.90;;;;;;5050582;28;20046;-50
2023/01/12 07:19:01;;;;;;;10.40;1.73;;;4.30;99.90;;;;;;5050229;28;20072;-52
2023/01/12 07:21:28;;;;;;;12.10;2.67;;;4.30;99.90;;;;;;5050971;28;20037;-51
2023/01/12 07:23:55;;;;;;;;;;;4.40;99.90;;;;;;5044029;28;20688;-53
2023/01/12 07:26:22;;;;;;;7.10;1.02;;;4.40;99.90;;;;;;5042769;28;20662;-51
2023/01/12 07:28:49;;;;;;;5.13;1.10;;;4.50;99.90;;;;;;5037559;28;20372;-49
2023/01/12 07:31:17;;;;;;;6.47;0.95;;;4.60;99.90;;;;;;5052857;28;20125;-49
2023/01/12 07:33:45;;;;;;;8.75;1.13;;;4.60;99.90;;;;;;5053696;28;20537;-51
2023/01/12 07:36:12;;;;;;;12.30;1.77;;;4.60;99.90;;;;;;5049266;28;20051;-51
2023/01/12 07:38:39;;;;;;;5.72;1.75;;;4.60;99.90;;;;;;5050633;28;20102;-52
2023/01/12 07:42:21;;;;;;;;;;;4.50;99.90;;;;;;5053180;28;20106;-51
2023/01/12 07:43:58;;;;;;;4.72;1.33;;;4.60;99.90;;;;;;5034257;28;20016;-51
2023/01/12 07:46:24;;;;;;;;;;;4.60;99.90;;;;;;5049872;28;20307;-51
2023/01/12 07:48:51;;;;;;;5.38;1.40;;;4.70;99.90;;;;;;5037183;28;19924;-52
2023/01/12 07:51:18;;;;;;;;;;;4.70;99.90;;;;;;5043340;28;20040;-52
2023/01/12 07:53:46;;;;;;;5.68;1.58;;;4.80;99.90;;;;;;5047619;28;20321;-49
2023/01/12 07:56:15;;;;;;;7.00;1.20;;;4.80;99.90;;;;;;5051333;28;20664;-51
2023/01/12 07:58:42;;;;;;;5.90;1.33;;;4.90;99.90;;;;;;5051845;28;20689;-52
2023/01/12 08:01:09;;;;;;;5.45;1.73;;;5.10;99.90;;;;;;5053645;28;20089;-51
2023/01/12 08:03:37;;;;;;;6.90;1.88;;;5.20;99.90;;;;;;5048772;28;20051;-53
2023/01/12 08:06:04;;;;;;;4.90;1.10;;;5.20;99.90;;;;;;5049527;28;20335;-51
2023/01/12 08:08:32;;;;;;;3.67;1.02;;;5.30;99.90;;;;;;5048541;28;20469;-57
2023/01/12 08:11:04;;;;;;;7.18;1.40;;;5.40;99.90;;;;;;5037635;28;20036;-49
2023/01/12 08:13:32;;;;;;;5.38;1.45;;;5.50;99.90;;;;;;5051564;28;20087;-52
2023/01/12 08:16:05;;;;;;;9.10;2.53;;;5.50;99.90;;;;;;5050249;28;20044;-45
2023/01/12 08:18:43;;;;;;;9.05;1.52;;;5.50;99.90;;;;;;5049669;28;20036;-46
2023/01/12 08:21:13;;;;;;;9.45;1.25;;;5.60;99.90;;;;;;5034729;28;20974;-51
2023/01/12 08:23:45;;;;;;;4.65;1.60;;;5.50;99.90;;;;;;5049593;28;20062;-52
2023/01/12 08:26:16;;;;;;;6.95;1.23;;;5.50;99.90;;;;;;5050552;28;20440;-54
2023/01/12 08:28:50;;;;;;;4.10;1.00;;;5.50;99.90;;;;;;5034825;28;20052;-50
2023/01/12 08:31:19;;;;;;;8.40;1.50;;;5.60;99.90;;;;;;5052430;28;20040;-62
2023/01/12 08:33:46;;;;;;;9.73;1.88;;;5.60;99.90;;;;;;5052166;28;20068;-52
2023/01/12 08:36:14;;;;;;;;;;;5.60;99.90;;;;;;5056268;28;20040;-51
2023/01/12 08:38:42;;;;;;;4.78;1.67;;;5.60;99.90;;;;;;5053464;28;20415;-52
2023/01/12 08:44:01;;;;;;;5.57;1.08;;;5.60;99.90;;;;;;5055010;28;20127;-54
2023/01/12 08:46:32;;;;;;;4.78;1.38;;;5.60;99.90;;;;;;5055296;28;20046;-54
2023/01/12 08:49:00;;;;;;;7.28;1.20;;;5.60;99.90;;;;;;5057513;28;20074;-52
2023/01/12 08:51:27;;;;;;;7.57;1.33;;;5.60;99.90;;;;;;5040335;28;20093;-51
2023/01/12 08:53:54;;;;;;;2.78;0.73;;;5.60;99.90;;;;;;5054226;28;20048;-53
2023/01/12 08:56:21;;;;;;;;;;;5.70;99.90;;;;;;5056568;28;20040;-53
2023/01/12 08:58:48;;;;;;;16.52;1.58;;;5.70;99.90;;;;;;5056108;28;19963;-53
2023/01/12 09:01:15;;;;;;;2.22;0.73;;;5.70;99.90;;;;;;5055248;28;20102;-55
2023/01/12 09:03:43;;;;;;;5.72;1.25;;;5.70;99.90;;;;;;5055879;28;20044;-54
2023/01/12 09:06:16;;;;;;;4.38;1.30;;;5.80;99.90;;;;;;5038994;28;20063;-49
2023/01/12 09:08:44;;;;;;;8.43;1.00;;;5.70;99.90;;;;;;5056216;28;20650;-50
2023/01/12 09:11:12;;;;;;;3.28;1.00;;;5.80;99.90;;;;;;5054775;28;20037;-53
2023/01/12 09:13:39;;;;;;;4.55;1.10;;;5.80;99.90;;;;;;5045986;28;20080;-57
2023/01/12 09:16:09;;;;;;;6.72;1.38;;;5.90;99.90;;;;;;5051362;28;20577;-51
2023/01/12 09:18:40;;;;;;;5.18;1.00;;;5.90;99.90;;;;;;5054766;28;20044;-55
2023/01/12 09:21:12;;;;;;;3.05;0.75;;;5.90;99.90;;;;;;5051852;28;20056;-55
2023/01/12 09:23:40;;;;;;;7.28;0.80;;;5.90;99.90;;;;;;5054214;28;20767;-53
2023/01/12 09:26:13;;;;;;;4.72;1.02;;;6.00;99.90;;;;;;5051684;28;20059;-53
2023/01/12 09:28:40;;;;;;;3.50;0.82;;;6.00;99.90;;;;;;5052990;28;20725;-62
2023/01/12 09:31:09;;;;;;;7.93;0.80;;;6.10;99.90;;;;;;5056299;28;20844;-53
2023/01/12 09:33:38;;;;;;;5.13;1.20;;;6.10;99.90;;;;;;5035463;28;20071;-53
2023/01/12 09:36:11;;;;;;;3.00;0.80;;;6.10;99.90;;;;;;5053005;28;20051;-54
2023/01/12 09:38:39;;;;;;;5.88;1.30;;;6.10;99.90;;;;;;5036864;28;20838;-52
2023/01/12 09:41:15;;;;;;;5.28;1.00;;;6.20;99.90;;;;;;5051451;28;20051;-53
2023/01/12 09:49:27;;;;;;;8.13;1.45;;;6.30;99.90;;;;;;5052658;28;20201;-52
2023/01/12 09:52:12;;;;;;;5.13;1.40;;;6.40;99.90;;;;;;5054273;28;20589;-51
2023/01/12 09:54:39;;;;;;;2.92;0.68;;;6.40;99.90;;;;;;5055033;28;20585;-52
2023/01/12 09:57:10;;;;;;;9.88;1.35;;;6.40;99.90;;;;;;5052234;28;20049;-52
2023/01/12 10:00:03;;;;;;;1.92;0.85;;;6.40;99.90;;;;;;5055492;28;20746;-49
2023/01/12 10:02:59;;;;;;;5.38;0.90;;;6.50;99.90;;;;;;5054298;28;20166;-52
2023/01/12 10:05:54;;;;;;;5.43;1.48;;;6.50;99.90;;;;;;5038146;28;20060;-53
2023/01/12 10:08:40;;;;;;;2.92;1.35;;;6.50;99.90;;;;;;5053316;28;20695;-52
2023/01/12 10:11:42;;;;;;;2.28;0.90;;;6.50;99.90;;;;;;5049801;28;20076;-53
2023/01/12 10:14:30;;;;;;;5.80;0.73;;;6.50;99.90;;;;;;5042265;28;20131;-53
2023/01/12 10:17:35;;;;;;;3.30;1.00;;;6.50;99.90;;;;;;5050720;28;20036;-52
2023/01/12 10:20:27;;;;;;;4.63;0.60;;;6.60;99.90;;;;;;5052161;28;20048;-52
2023/01/12 10:23:06;;;;;;;2.83;1.13;;;6.60;99.90;;;;;;5052274;28;20835;-54
2023/01/12 10:25:44;;;;;;;6.05;1.13;;;6.60;99.90;;;;;;5052510;28;20924;-53
2023/01/12 10:28:11;;;;;;;2.38;1.10;;;6.60;99.90;;;;;;5051578;28;20096;-53
2023/01/12 10:30:38;;;;;;;;;;;6.60;99.90;;;;;;5052739;28;20040;-53
2023/01/12 10:33:10;;;;;;;;;;;6.60;99.90;;;;;;5054757;28;19924;-55
2023/01/12 10:35:47;;;;;;;2.58;1.00;;;6.70;99.90;;;;;;5051768;28;20397;-52
2023/01/12 10:38:38;;;;;;;;;;;6.70;99.90;;;;;;5035560;28;20131;-53
2023/01/12 10:41:11;;;;;;;7.72;0.80;;;6.70;99.90;;;;;;5040599;28;19977;-55
2023/01/12 10:43:40;;;;;;;4.30;0.80;;;6.80;99.90;;;;;;5053752;28;20131;-53
2023/01/12 10:46:13;;;;;;;1.70;0.88;;;6.80;99.90;;;;;;5053070;28;20047;-52
2023/01/12 10:48:47;;;;;;;2.08;0.85;;;6.90;99.90;;;;;;5051422;28;20071;-55
2023/01/12 10:51:28;;;;;;;4.13;0.77;;;6.90;99.90;;;;;;5044339;28;20076;-53
2023/01/12 10:54:07;;;;;;;2.53;0.77;;;6.80;99.90;;;;;;5051387;28;20051;-52
2023/01/12 10:56:37;;;;;;;3.13;1.00;;;6.90;99.90;;;;;;5055362;28;20167;-53
2023/01/12 10:59:20;;;;;;;2.50;0.75;;;6.90;99.90;;;;;;5050480;28;20037;-55
2023/01/12 11:01:51;;;;;;;2.60;0.80;;;6.90;99.90;;;;;;5051086;28;20044;-55
2023/01/12 11:04:27;;;;;;;1.13;0.63;;;6.90;99.90;;;;;;5053421;28;20122;-55
2023/01/12 11:07:10;;;;;;;3.05;0.73;;;6.90;99.90;;;;;;5051722;28;20048;-55
2023/01/12 11:09:38;;;;;;;5.25;1.10;;;6.90;99.90;;;;;;5053582;28;20911;-54
2023/01/12 11:12:31;;;;;;;3.03;1.00;;;6.90;99.90;;;;;;5053299;28;20808;-54
2023/01/12 11:15:09;;;;;;;4.97;1.52;;;6.80;99.90;;;;;;5042437;28;20084;-53
2023/01/12 11:17:57;;;;;;;3.65;1.20;;;6.80;99.90;;;;;;5052459;28;20045;-54
2023/01/12 11:20:40;;;;;;;2.05;1.25;;;6.80;99.90;;;;;;5052357;28;20048;-51
2023/01/12 11:23:53;;;;;;;2.47;0.88;;;6.80;99.90;;;;;;5049001;28;20233;-56
2023/01/12 11:26:26;;;;;;;3.10;1.75;;;6.80;99.90;;;;;;5050401;28;20187;-54
2023/01/12 11:29:03;;;;;;;9.50;3.30;;;6.80;99.90;;;;;;5052188;28;20220;-54
2023/01/12 11:31:38;;;;;;;11.38;5.32;;;6.80;99.90;;;;;;5054806;28;20119;-55
2023/01/12 11:34:17;;;;;;;14.73;7.32;;;6.80;99.90;;;;;;5049808;28;20792;-53
2023/01/12 11:36:52;;;;;;;8.15;4.18;;;6.80;99.90;;;;;;5041920;28;20043;-55
2023/01/12 11:39:22;;;;;;;5.10;1.63;;;6.80;99.90;;;;;;5049181;28;20044;-53
2023/01/12 11:45:13;;;;;;;6.82;1.05;;;6.80;99.90;;;;;;5050454;28;20040;-51
2023/01/12 11:47:46;;;;;;;6.22;0.88;;;6.80;99.90;;;;;;5052815;28;20122;-54
2023/01/12 11:50:28;;;;;;;2.55;1.20;;;6.80;99.90;;;;;;5050553;28;20080;-50
2023/01/12 11:52:56;;;;;;;3.65;1.15;;;6.80;99.90;;;;;;5053834;28;20119;-53
2023/01/12 11:55:44;;;;;;;1.70;0.82;;;6.80;99.90;;;;;;5051618;28;20768;-52
2023/01/12 11:58:16;;;;;;;;;;;6.80;99.90;;;;;;5053261;28;20162;-53
2023/01/12 12:01:22;;;;;;;8.52;1.13;;;6.80;99.90;;;;;;5051058;28;20280;-54
2023/01/12 12:04:02;;;;;;;5.40;0.98;;;6.90;99.90;;;;;;4996084;28;20079;-52
2023/01/12 12:06:35;;;;;;;3.83;0.77;;;6.90;99.90;;;;;;5050879;28;20578;-52
2023/01/12 12:09:29;;;;;;;2.20;0.82;;;6.90;99.90;;;;;;5052376;28;20102;-54
2023/01/12 12:12:17;;;;;;;1.27;0.98;;;6.90;99.90;;;;;;5050172;28;20085;-54
2023/01/12 12:15:03;;;;;;;4.60;1.10;;;6.90;99.90;;;;;;5052272;28;20040;-56
2023/01/12 12:17:46;;;;;;;2.85;1.02;;;7.00;99.90;;;;;;5049578;28;20048;-55
2023/01/12 12:20:30;;;;;;;2.92;0.88;;;7.00;99.90;;;;;;5050723;28;20051;-54
2023/01/12 12:23:22;;;;;;;4.90;1.23;;;6.90;99.90;;;;;;5047204;28;20064;-53
2023/01/12 12:25:55;;;;;;;2.85;0.85;;;6.90;99.90;;;;;;5042073;28;20270;-55
2023/01/12 12:28:41;;;;;;;2.15;0.82;;;7.00;99.90;;;;;;5053017;28;20049;-56
2023/01/12 12:31:26;;;;;;;1.95;1.15;;;7.00;99.90;;;;;;5047993;28;20074;-54
2023/01/12 12:34:17;;;;;;;4.40;1.30;;;7.00;99.90;;;;;;5047417;28;20036;-51
2023/01/12 12:37:05;;;;;;;3.65;0.95;;;7.00;99.90;;;;;;5051144;28;20057;-54
2023/01/12 12:39:42;;;;;;;4.68;1.38;;;7.00;99.90;;;;;;5020627;28;20063;-56
2023/01/12 12:45:41;;;;;;;2.08;0.82;;;7.00;99.90;;;;;;5042404;28;20078;-55
2023/01/12 12:48:13;;;;;;;2.90;0.85;;;7.00;99.90;;;;;;5040283;28;20060;-55
2023/01/12 12:50:49;;;;;;;3.20;1.08;;;7.10;99.90;;;;;;5051423;28;20036;-54
2023/01/12 12:53:25;;;;;;;3.95;1.02;;;7.10;99.90;;;;;;5052103;28;20047;-57
2023/01/12 12:55:56;;;;;;;2.38;0.95;;;7.10;99.90;;;;;;5050226;28;20424;-53
2023/01/12 12:58:23;;;;;;;3.55;0.95;;;7.10;99.90;;;;;;5052156;28;20063;-54
2023/01/12 13:00:50;;;;;;;3.35;1.33;;;7.10;99.90;;;;;;5048915;28;20205;-53
2023/01/12 13:03:39;;;;;;;3.63;0.90;;;7.10;99.90;;;;;;5050318;28;20056;-55
2023/01/12 13:06:10;;;;;;;3.35;0.93;;;7.10;99.90;;;;;;5047229;28;20147;-50
2023/01/12 13:08:38;;;;;;;3.20;0.75;;;7.10;99.90;;;;;;5050106;28;20322;-53
2023/01/12 13:11:05;;;;;;;3.47;1.17;;;7.10;99.90;;;;;;5050258;28;20043;-55
2023/01/12 13:13:36;;;;;;;7.93;1.15;;;7.10;99.90;;;;;;5049026;28;20569;-53
2023/01/12 13:16:18;;;;;;;2.78;1.25;;;7.10;99.90;;;;;;5049191;28;20051;-55
2023/01/12 13:18:51;;;;;;;2.28;0.70;;;7.20;99.90;;;;;;5051532;28;20066;-54
2023/01/12 13:21:54;;;;;;;1.20;0.63;;;7.20;99.90;;;;;;5053468;28;20048;-53
2023/01/12 13:24:28;;;;;;;1.83;0.68;;;7.20;99.90;;;;;;5051202;28;20873;-52
2023/01/12 13:26:57;;;;;;;1.48;0.80;;;7.30;99.90;;;;;;5036173;28;20858;-55
2023/01/12 13:29:27;;;;;;;4.30;1.17;;;7.30;99.90;;;;;;5052399;28;20051;-52
2023/01/12 13:31:58;;;;;;;3.15;1.10;;;7.30;99.90;;;;;;5055677;28;20040;-50
2023/01/12 13:34:37;;;;;;;3.22;0.82;;;7.30;99.90;;;;;;5054503;28;20050;-53
2023/01/12 13:37:31;;;;;;;1.88;0.70;;;7.30;99.90;;;;;;5038251;28;20047;-54
2023/01/12 13:40:19;;;;;;;4.28;0.77;;;7.30;99.90;;;;;;5055646;28;20715;-53
2023/01/12 13:45:35;;;;;;;3.83;1.17;;;7.40;99.90;;;;;;5055355;28;20136;-51
2023/01/12 13:48:05;;;;;;;9.57;1.35;;;7.40;99.90;;;;;;5051952;28;20138;-53
2023/01/12 13:50:34;;;;;;;6.20;1.00;;;7.40;99.90;;;;;;5054514;28;20106;-55
2023/01/12 13:53:02;;;;;;;3.83;1.00;;;7.40;99.90;;;;;;5036480;28;20040;-52
2023/01/12 13:55:31;;;;;;;3.78;0.90;;;7.40;99.90;;;;;;5053717;28;20078;-56
2023/01/12 13:58:15;;;;;;;3.03;0.90;;;7.40;99.90;;;;;;5052408;28;20044;-54
2023/01/12 14:00:54;;;;;;;1.98;0.70;;;7.50;99.90;;;;;;5053225;28;20056;-53
2023/01/12 14:04:02;;;;;;;4.55;0.90;;;7.50;99.90;;;;;;5052462;28;20074;-55
2023/01/12 14:06:46;;;;;;;2.78;0.88;;;7.50;99.90;;;;;;5035695;28;20420;-53
2023/01/12 14:09:34;;;;;;;5.75;0.93;;;7.50;99.90;;;;;;5053919;28;20516;-54
2023/01/12 14:12:48;;;;;;;0.95;0.57;;;7.50;99.90;;;;;;5054423;28;20135;-53
2023/01/12 14:18:47;;;;;;;6.57;1.08;;;7.50;99.90;;;;;;4984533;28;20056;-52
2023/01/12 14:21:27;;;;;;;4.40;1.23;;;7.50;99.90;;;;;;5049556;28;20503;-53